Time,TemperatureF,DewpointF,PressureIn,WindDirection,WindDirectionDegrees,WindSpeedMPH,WindSpeedGustMPH,Humidity,HourlyPrecipIn,Conditions,Clouds,dailyrainin,SoftwareType,DateUTC
2013-05-17 00:03:00,59.0,37.0,29.83,SSE,158,0.0,0.0,44,0.00,,,0.00,,2013-05-17 04:03:00,
2013-05-17 00:13:00,59.0,37.0,29.83,SSE,158,0.0,0.0,44,0.00,,,0.00,,2013-05-17 04:13:00,
2013-05-17 00:23:00,59.0,37.0,29.83,SSE,158,0.0,0.0,44,0.00,,,0.00,,2013-05-17 04:23:00,
2013-05-17 00:34:00,56.0,38.0,29.83,NW,315,0.0,0.0,50,0.00,,,0.00,,2013-05-17 04:34:00,
2013-05-17 00:43:00,56.0,38.0,29.83,NW,315,0.0,0.0,50,0.00,,,0.00,,2013-05-17 04:43:00,
2013-05-17 00:53:00,56.0,38.0,29.83,NW,315,0.0,0.0,50,0.00,,,0.00,,2013-05-17 04:53:00,
2013-05-17 01:03:00,53.0,38.0,29.84,NNE,22,0.0,0.0,56,0.00,,,0.00,,2013-05-17 05:03:00,
2013-05-17 01:14:00,53.0,38.0,29.84,NNE,22,0.0,0.0,56,0.00,,,0.00,,2013-05-17 05:14:00,
2013-05-17 01:22:00,53.0,38.0,29.84,NNE,22,0.0,0.0,56,0.00,,,0.00,,2013-05-17 05:22:00,
2013-05-17 01:32:00,52.0,38.0,29.86,North,0,0.0,2.0,59,0.00,,,0.00,,2013-05-17 05:32:00,
2013-05-17 01:42:00,52.0,38.0,29.86,North,0,0.0,2.0,59,0.00,,,0.00,,2013-05-17 05:42:00,
2013-05-17 01:52:00,52.0,38.0,29.86,North,0,0.0,2.0,59,0.00,,,0.00,,2013-05-17 05:52:00,
2013-05-17 02:02:00,51.0,39.0,29.86,NE,45,0.0,1.0,64,0.00,,,0.00,,2013-05-17 06:02:00,
2013-05-17 02:11:00,51.0,39.0,29.86,NE,45,0.0,1.0,64,0.00,,,0.00,,2013-05-17 06:11:00,
2013-05-17 02:22:00,51.0,39.0,29.86,NE,45,0.0,1.0,64,0.00,,,0.00,,2013-05-17 06:22:00,
2013-05-17 02:32:00,50.0,40.0,29.87,NW,315,0.0,2.0,68,0.00,,,0.00,,2013-05-17 06:32:00,
2013-05-17 02:42:00,50.0,40.0,29.87,NW,315,0.0,2.0,68,0.00,,,0.00,,2013-05-17 06:42:00,
2013-05-17 02:52:00,50.0,40.0,29.87,NW,315,0.0,2.0,68,0.00,,,0.00,,2013-05-17 06:52:00,
2013-05-17 03:03:00,49.0,40.0,29.87,WNW,292,0.0,0.0,70,0.00,,,0.00,,2013-05-17 07:03:00,
2013-05-17 03:11:00,49.0,40.0,29.87,WNW,292,0.0,0.0,70,0.00,,,0.00,,2013-05-17 07:11:00,
2013-05-17 03:21:00,49.0,40.0,29.87,WNW,292,0.0,0.0,70,0.00,,,0.00,,2013-05-17 07:21:00,
2013-05-17 03:32:00,48.0,39.0,29.88,NNW,338,0.0,0.0,72,0.00,,,0.00,,2013-05-17 07:32:00,
2013-05-17 03:43:00,48.0,39.0,29.88,NNW,338,0.0,0.0,72,0.00,,,0.00,,2013-05-17 07:43:00,
2013-05-17 03:53:00,48.0,39.0,29.88,NNW,338,0.0,0.0,72,0.00,,,0.00,,2013-05-17 07:53:00,
2013-05-17 04:02:00,47.0,39.0,29.88,NNW,338,0.0,0.0,75,0.00,,,0.00,,2013-05-17 08:02:00,
2013-05-17 04:12:00,47.0,39.0,29.88,NNW,338,0.0,0.0,75,0.00,,,0.00,,2013-05-17 08:12:00,
2013-05-17 04:23:00,47.0,39.0,29.88,NNW,338,0.0,0.0,75,0.00,,,0.00,,2013-05-17 08:23:00,
2013-05-17 04:34:00,47.0,40.0,29.89,NNW,338,0.0,0.0,76,0.00,,,0.00,,2013-05-17 08:34:00,
2013-05-17 04:42:00,47.0,40.0,29.89,NNW,338,0.0,0.0,76,0.00,,,0.00,,2013-05-17 08:42:00,
2013-05-17 04:52:00,47.0,40.0,29.89,NNW,338,0.0,0.0,76,0.00,,,0.00,,2013-05-17 08:52:00,
2013-05-17 05:02:00,46.0,39.0,29.90,NNW,338,0.0,0.0,77,0.00,,,0.00,,2013-05-17 09:02:00,
2013-05-17 05:12:00,46.0,39.0,29.90,NNW,338,0.0,0.0,77,0.00,,,0.00,,2013-05-17 09:12:00,
2013-05-17 05:23:00,46.0,39.0,29.90,NNW,338,0.0,0.0,77,0.00,,,0.00,,2013-05-17 09:23:00,
2013-05-17 05:33:00,46.0,40.0,29.91,NNE,22,0.0,0.0,78,0.00,,,0.00,,2013-05-17 09:33:00,
2013-05-17 05:42:00,46.0,40.0,29.91,NNE,22,0.0,0.0,78,0.00,,,0.00,,2013-05-17 09:42:00,
2013-05-17 05:53:00,46.0,40.0,29.91,NNE,22,0.0,0.0,78,0.00,,,0.00,,2013-05-17 09:53:00,
2013-05-17 06:03:00,45.0,39.0,29.93,NE,45,0.0,1.0,79,0.00,,,0.00,,2013-05-17 10:03:00,
2013-05-17 06:12:00,45.0,39.0,29.93,NE,45,0.0,1.0,79,0.00,,,0.00,,2013-05-17 10:12:00,
2013-05-17 06:23:00,45.0,39.0,29.93,NE,45,0.0,1.0,79,0.00,,,0.00,,2013-05-17 10:23:00,
2013-05-17 06:33:00,48.0,41.0,29.95,ENE,68,1.0,3.0,77,0.00,,,0.00,,2013-05-17 10:33:00,
2013-05-17 06:42:00,48.0,41.0,29.95,ENE,68,1.0,3.0,77,0.00,,,0.00,,2013-05-17 10:42:00,
2013-05-17 06:54:00,48.0,41.0,29.95,ENE,68,1.0,3.0,77,0.00,,,0.00,,2013-05-17 10:54:00,
2013-05-17 07:02:00,50.0,41.0,29.96,ENE,68,2.0,3.0,72,0.00,,,0.00,,2013-05-17 11:02:00,
2013-05-17 07:12:00,50.0,41.0,29.96,ENE,68,2.0,3.0,72,0.00,,,0.00,,2013-05-17 11:12:00,
2013-05-17 07:23:00,50.0,41.0,29.96,ENE,68,2.0,3.0,72,0.00,,,0.00,,2013-05-17 11:23:00,
2013-05-17 07:34:00,51.0,40.0,29.97,ESE,112,2.0,6.0,67,0.00,,,0.00,,2013-05-17 11:34:00,
2013-05-17 07:42:00,51.0,40.0,29.97,ESE,112,2.0,6.0,67,0.00,,,0.00,,2013-05-17 11:42:00,
2013-05-17 07:53:00,51.0,40.0,29.97,ESE,112,2.0,6.0,67,0.00,,,0.00,,2013-05-17 11:53:00,
2013-05-17 08:03:00,52.0,40.0,29.98,SSE,158,3.0,7.0,64,0.00,,,0.00,,2013-05-17 12:03:00,
2013-05-17 08:12:00,52.0,40.0,29.98,SSE,158,3.0,7.0,64,0.00,,,0.00,,2013-05-17 12:12:00,
2013-05-17 08:23:00,52.0,40.0,29.98,SSE,158,3.0,7.0,64,0.00,,,0.00,,2013-05-17 12:23:00,
2013-05-17 08:33:00,57.0,42.0,30.05,NNW,338,3.0,10.0,57,0.00,,,0.00,,2013-05-17 12:33:00,
2013-05-17 09:04:00,59.0,42.0,30.06,West,270,1.0,7.0,54,0.00,,,0.00,,2013-05-17 13:04:00,
2013-05-17 09:33:00,58.0,43.0,30.06,ESE,112,2.0,5.0,57,0.00,,,0.00,,2013-05-17 13:33:00,
2013-05-17 10:02:00,58.0,41.0,30.06,South,180,2.0,6.0,54,0.00,,,0.00,,2013-05-17 14:02:00,
2013-05-17 10:13:00,58.0,41.0,30.06,South,180,2.0,6.0,54,0.00,,,0.00,,2013-05-17 14:13:00,
2013-05-17 10:22:00,58.0,41.0,30.06,South,180,2.0,6.0,54,0.00,,,0.00,,2013-05-17 14:22:00,
2013-05-17 10:34:00,59.0,43.0,30.07,NNW,338,2.0,6.0,56,0.00,,,0.00,,2013-05-17 14:34:00,
2013-05-17 10:43:00,59.0,43.0,30.07,NNW,338,2.0,6.0,56,0.00,,,0.00,,2013-05-17 14:43:00,
2013-05-17 10:53:00,59.0,43.0,30.07,NNW,338,2.0,6.0,56,0.00,,,0.00,,2013-05-17 14:53:00,
2013-05-17 11:03:00,61.0,44.0,30.08,WSW,248,2.0,3.0,53,0.00,,,0.00,,2013-05-17 15:03:00,
2013-05-17 11:14:00,61.0,44.0,30.08,WSW,248,2.0,3.0,53,0.00,,,0.00,,2013-05-17 15:14:00,
2013-05-17 11:25:00,61.0,44.0,30.08,WSW,248,2.0,3.0,53,0.00,,,0.00,,2013-05-17 15:25:00,
2013-05-17 11:37:00,62.0,42.0,30.09,ESE,112,2.0,5.0,48,0.00,,,0.00,,2013-05-17 15:37:00,
2013-05-17 11:47:00,62.0,42.0,30.09,ESE,112,2.0,5.0,48,0.00,,,0.00,,2013-05-17 15:47:00,
2013-05-17 11:57:00,62.0,42.0,30.09,ESE,112,2.0,5.0,48,0.00,,,0.00,,2013-05-17 15:57:00,
2013-05-17 12:07:00,63.0,43.0,30.09,NW,315,3.0,6.0,48,0.00,,,0.00,,2013-05-17 16:07:00,
2013-05-17 12:14:00,63.0,43.0,30.09,NW,315,3.0,6.0,48,0.00,,,0.00,,2013-05-17 16:14:00,
2013-05-17 12:26:00,63.0,43.0,30.09,NW,315,3.0,6.0,48,0.00,,,0.00,,2013-05-17 16:26:00,
2013-05-17 12:37:00,65.0,45.0,30.09,ESE,112,2.0,5.0,48,0.00,,,0.00,,2013-05-17 16:37:00,
2013-05-17 12:49:00,65.0,45.0,30.09,ESE,112,2.0,5.0,48,0.00,,,0.00,,2013-05-17 16:49:00,
2013-05-17 12:56:00,65.0,45.0,30.09,ESE,112,2.0,5.0,48,0.00,,,0.00,,2013-05-17 16:56:00,
2013-05-17 13:08:00,65.0,43.0,30.09,NNE,20,3.0,7.0,45,0.00,,,0.00,,2013-05-17 17:08:00,
2013-05-17 13:19:00,65.0,43.0,30.09,NNE,20,3.0,7.0,45,0.00,,,0.00,,2013-05-17 17:19:00,
2013-05-17 13:30:00,65.0,43.0,30.09,NNE,20,3.0,7.0,45,0.00,,,0.00,,2013-05-17 17:30:00,
2013-05-17 13:40:00,66.0,-99.9,30.10,SW,235,2.0,5.0,44,0.00,,,0.00,,2013-05-17 17:40:00,
2013-05-17 13:49:00,66.0,43.0,30.10,SW,235,2.0,5.0,44,0.00,,,0.00,,2013-05-17 17:49:00,
2013-05-17 14:00:00,66.0,-99.9,30.10,SW,235,2.0,5.0,44,0.00,,,0.00,,2013-05-17 18:00:00,
2013-05-17 14:09:00,68.0,44.0,30.11,WSW,241,2.0,6.0,42,0.00,,,0.00,,2013-05-17 18:09:00,
2013-05-17 14:20:00,68.0,44.0,30.11,WSW,241,2.0,6.0,42,0.00,,,0.00,,2013-05-17 18:20:00,
2013-05-17 14:30:00,68.0,44.0,30.11,WSW,241,2.0,6.0,42,0.00,,,0.00,,2013-05-17 18:30:00,
2013-05-17 14:40:00,69.0,-99.9,30.12,WSW,257,2.0,5.0,41,0.00,,,0.00,,2013-05-17 18:40:00,
2013-05-17 14:50:00,-999.0,-99.9,30.12,WSW,257,2.0,5.0,41,0.00,,,0.00,,2013-05-17 18:50:00,
2013-05-17 15:10:00,69.0,44.0,30.12,South,189,2.0,5.0,41,0.00,,,0.00,,2013-05-17 19:10:00,
2013-05-17 15:20:00,69.0,44.0,30.12,South,189,2.0,5.0,41,0.00,,,0.00,,2013-05-17 19:20:00,
2013-05-17 15:30:00,69.0,44.0,30.12,South,189,2.0,5.0,41,0.00,,,0.00,,2013-05-17 19:30:00,
2013-05-17 15:40:00,70.0,45.0,30.12,NE,45,2.0,5.0,40,0.00,,,0.00,,2013-05-17 19:40:00,
2013-05-17 16:01:00,-999.0,-99.9,30.12,NE,45,2.0,5.0,40,0.00,,,0.00,,2013-05-17 20:01:00,
2013-05-17 16:09:00,70.0,43.0,30.12,SE,127,2.0,5.0,37,0.00,,,0.00,,2013-05-17 20:09:00,
2013-05-17 16:20:00,70.0,43.0,30.12,SE,127,2.0,5.0,37,0.00,,,0.00,,2013-05-17 20:20:00,
2013-05-17 16:30:00,70.0,43.0,30.12,SE,127,2.0,5.0,37,0.00,,,0.00,,2013-05-17 20:30:00,
2013-05-17 16:40:00,70.0,41.0,30.13,SSE,164,2.0,6.0,35,0.00,,,0.00,,2013-05-17 20:40:00,
2013-05-17 16:50:00,70.0,41.0,30.13,SSE,164,2.0,6.0,35,0.00,,,0.00,,2013-05-17 20:50:00,
2013-05-17 16:58:00,70.0,41.0,30.13,SSE,164,2.0,6.0,35,0.00,,,0.00,,2013-05-17 20:58:00,
2013-05-17 17:07:00,69.0,40.0,30.14,ENE,70,2.0,3.0,35,0.00,,,0.00,,2013-05-17 21:07:00,
2013-05-17 17:17:00,69.0,40.0,30.14,ENE,70,2.0,3.0,35,0.00,,,0.00,,2013-05-17 21:17:00,
2013-05-17 17:26:00,69.0,40.0,30.14,ENE,70,2.0,3.0,35,0.00,,,0.00,,2013-05-17 21:26:00,
2013-05-17 17:39:00,68.0,39.0,30.15,SSE,160,1.0,3.0,34,0.00,,,0.00,,2013-05-17 21:39:00,
2013-05-17 17:49:00,68.0,39.0,30.15,SSE,160,1.0,3.0,34,0.00,,,0.00,,2013-05-17 21:49:00,
2013-05-17 17:58:00,68.0,39.0,30.15,SSE,160,1.0,3.0,34,0.00,,,0.00,,2013-05-17 21:58:00,
2013-05-17 18:07:00,69.0,38.0,30.16,SSE,155,1.0,2.0,32,0.00,,,0.00,,2013-05-17 22:07:00,
2013-05-17 18:17:00,69.0,38.0,30.16,SSE,155,1.0,2.0,32,0.00,,,0.00,,2013-05-17 22:17:00,
2013-05-17 18:28:00,69.0,38.0,30.16,SSE,155,1.0,2.0,32,0.00,,,0.00,,2013-05-17 22:28:00,
2013-05-17 18:38:00,65.0,37.0,30.12,ENE,66,2.0,5.0,35,0.00,,,0.00,,2013-05-17 22:38:00,
2013-05-17 18:47:00,65.0,37.0,30.12,ENE,66,2.0,5.0,35,0.00,,,0.00,,2013-05-17 22:47:00,
2013-05-17 18:55:00,65.0,37.0,30.12,ENE,66,2.0,5.0,35,0.00,,,0.00,,2013-05-17 22:55:00,
2013-05-17 19:04:00,63.0,37.0,30.14,ENE,67,1.0,3.0,38,0.00,,,0.00,,2013-05-17 23:04:00,
2013-05-17 19:13:00,63.0,37.0,30.14,ENE,67,1.0,3.0,38,0.00,,,0.00,,2013-05-17 23:13:00,
2013-05-17 19:23:00,63.0,37.0,30.14,ENE,67,1.0,3.0,38,0.00,,,0.00,,2013-05-17 23:23:00,
2013-05-17 19:37:00,62.0,39.0,30.13,SE,135,1.0,2.0,42,0.00,,,0.00,,2013-05-17 23:37:00,
2013-05-17 19:47:00,62.0,39.0,30.13,SE,135,1.0,2.0,42,0.00,,,0.00,,2013-05-17 23:47:00,
2013-05-17 19:54:00,62.0,39.0,30.13,SE,135,1.0,2.0,42,0.00,,,0.00,,2013-05-17 23:54:00,
2013-05-17 20:02:00,60.0,40.0,30.14,WSW,249,0.0,0.0,48,0.00,,,0.00,,2013-05-18 00:02:00,
2013-05-17 20:14:00,60.0,40.0,30.14,WSW,249,0.0,0.0,48,0.00,,,0.00,,2013-05-18 00:14:00,
2013-05-17 20:22:00,60.0,40.0,30.14,WSW,249,0.0,0.0,48,0.00,,,0.00,,2013-05-18 00:22:00,
2013-05-17 20:34:00,57.0,39.0,30.16,WNW,296,0.0,1.0,51,0.00,,,0.00,,2013-05-18 00:34:00,
2013-05-17 20:45:00,57.0,39.0,30.16,WNW,296,0.0,1.0,51,0.00,,,0.00,,2013-05-18 00:45:00,
2013-05-17 20:54:00,57.0,39.0,30.16,WNW,296,0.0,1.0,51,0.00,,,0.00,,2013-05-18 00:54:00,
2013-05-17 21:03:00,54.0,39.0,30.17,NNE,22,0.0,1.0,56,0.00,,,0.00,,2013-05-18 01:03:00,
2013-05-17 21:13:00,54.0,39.0,30.17,NNE,22,0.0,1.0,56,0.00,,,0.00,,2013-05-18 01:13:00,
2013-05-17 21:24:00,54.0,39.0,30.17,NNE,22,0.0,1.0,56,0.00,,,0.00,,2013-05-18 01:24:00,
2013-05-17 21:32:00,51.0,38.0,30.19,NNE,22,0.0,0.0,62,0.00,,,0.00,,2013-05-18 01:32:00,
2013-05-17 21:43:00,51.0,38.0,30.19,NNE,22,0.0,0.0,62,0.00,,,0.00,,2013-05-18 01:43:00,
2013-05-17 21:52:00,51.0,38.0,30.19,NNE,22,0.0,0.0,62,0.00,,,0.00,,2013-05-18 01:52:00,
2013-05-17 22:03:00,49.0,39.0,30.20,NNE,22,0.0,0.0,67,0.00,,,0.00,,2013-05-18 02:03:00,
2013-05-17 22:12:00,49.0,39.0,30.20,NNE,22,0.0,0.0,67,0.00,,,0.00,,2013-05-18 02:12:00,
2013-05-17 22:23:00,49.0,39.0,30.20,NNE,22,0.0,0.0,67,0.00,,,0.00,,2013-05-18 02:23:00,
2013-05-17 22:32:00,48.0,38.0,30.20,NNE,22,0.0,0.0,69,0.00,,,0.00,,2013-05-18 02:32:00,
2013-05-17 22:42:00,48.0,38.0,30.20,NNE,22,0.0,0.0,69,0.00,,,0.00,,2013-05-18 02:42:00,
2013-05-17 22:54:00,48.0,38.0,30.20,NNE,22,0.0,0.0,69,0.00,,,0.00,,2013-05-18 02:54:00,
2013-05-17 23:03:00,47.0,38.0,30.21,NNE,22,0.0,0.0,72,0.00,,,0.00,,2013-05-18 03:03:00,
2013-05-17 23:12:00,47.0,38.0,30.21,NNE,22,0.0,0.0,72,0.00,,,0.00,,2013-05-18 03:12:00,
2013-05-17 23:23:00,47.0,38.0,30.21,NNE,22,0.0,0.0,72,0.00,,,0.00,,2013-05-18 03:23:00,
2013-05-17 23:33:00,46.0,38.0,30.21,NNE,22,0.0,0.0,73,0.00,,,0.00,,2013-05-18 03:33:00,
2013-05-17 23:43:00,46.0,38.0,30.21,NNE,22,0.0,0.0,73,0.00,,,0.00,,2013-05-18 03:43:00,
2013-05-17 23:53:00,46.0,38.0,30.21,NNE,22,0.0,0.0,73,0.00,,,0.00,,2013-05-18 03:53:00,